Time;durP1;ratioP1;P1;durP2;ratioP2;P2;SDS_P1;SDS_P2;PMS_P1;PMS_P2;Temp;Humidity;BMP_temperature;BMP_pressure;BME280_temperature;BME280_humidity;BME280_pressure;Samples;Min_cycle;Max_cycle;Signal;HPM_P1;HPM_P2
2021/05/22 00:00:54;;;;;;;6.55;5.10;;;;;;;;;;4997721;28;20037;-85
2021/05/22 00:03:20;;;;;;;7.95;5.70;;;;;;;;;;4997745;28;20034;-85
2021/05/22 00:05:46;;;;;;;8.20;5.50;;;;;;;;;;4997832;28;20409;-85
2021/05/22 00:08:12;;;;;;;6.28;4.93;;;;;;;;;;4998007;28;20050;-85
2021/05/22 00:10:38;;;;;;;7.32;5.78;;;;;;;;;;4997740;28;20026;-85
2021/05/22 00:13:04;;;;;;;7.32;5.45;;;;;;;;;;4997780;28;20302;-85
2021/05/22 00:15:30;;;;;;;7.15;5.22;;;;;;;;;;4998042;28;20030;-85
2021/05/22 00:17:56;;;;;;;8.15;5.20;;;;;;;;;;4980385;28;20409;-85
2021/05/22 00:20:23;;;;;;;6.90;5.10;;;;;;;;;;4997677;28;20113;-86
2021/05/22 00:22:49;;;;;;;8.63;5.47;;;;;;;;;;4997551;28;20050;-85
2021/05/22 00:25:15;;;;;;;8.23;5.85;;;;;;;;;;4997558;28;20027;-85
2021/05/22 00:27:42;;;;;;;7.93;5.60;;;;;;;;;;4997587;28;20025;-85
2021/05/22 00:30:09;;;;;;;7.30;5.10;;;;;;;;;;4997774;28;20025;-86
2021/05/22 00:32:36;;;;;;;9.45;6.15;;;;;;;;;;4997552;28;20345;-86
2021/05/22 00:35:02;;;;;;;7.75;5.82;;;;;;;;;;4997553;28;20025;-86
2021/05/22 00:37:28;;;;;;;10.75;5.47;;;;;;;;;;4997421;28;20018;-86
2021/05/22 00:39:54;;;;;;;7.50;5.50;;;;;;;;;;5000845;28;20374;-86
2021/05/22 00:42:20;;;;;;;7.85;5.88;;;;;;;;;;5001459;28;20022;-86
2021/05/22 00:45:22;;;;;;;8.43;5.75;;;;;;;;;;5001295;28;20038;-86
2021/05/22 00:47:49;;;;;;;6.35;5.53;;;;;;;;;;4922512;29;20036;-86
2021/05/22 00:50:25;;;;;;;6.32;5.70;;;;;;;;;;4922348;29;20044;-86
2021/05/22 00:52:51;;;;;;;8.18;5.68;;;;;;;;;;4922327;29;20060;-86
2021/05/22 00:55:17;;;;;;;8.73;6.45;;;;;;;;;;4922411;29;20097;-86
2021/05/22 00:57:44;;;;;;;8.48;5.70;;;;;;;;;;4922120;29;20064;-86
2021/05/22 01:00:12;;;;;;;11.68;6.00;;;;;;;;;;4922402;29;20024;-86
2021/05/22 01:02:38;;;;;;;12.57;7.13;;;;;;;;;;4922233;29;20040;-86
2021/05/22 01:05:04;;;;;;;12.18;7.55;;;;;;;;;;4922382;29;20079;-86
2021/05/22 01:07:30;;;;;;;11.25;7.20;;;;;;;;;;4922338;29;20087;-86
2021/05/22 01:09:56;;;;;;;8.13;6.93;;;;;;;;;;4922221;29;20036;-86
2021/05/22 01:12:27;;;;;;;12.88;7.25;;;;;;;;;;4922255;29;20032;-86
2021/05/22 01:14:56;;;;;;;8.82;6.15;;;;;;;;;;4906441;29;20427;-86
2021/05/22 01:17:23;;;;;;;9.35;6.40;;;;;;;;;;4921991;29;20450;-86
2021/05/22 01:20:01;;;;;;;11.55;5.82;;;;;;;;;;4922119;29;20028;-86
2021/05/22 01:22:28;;;;;;;7.43;5.80;;;;;;;;;;4969176;28;20426;-86
2021/05/22 01:24:57;;;;;;;9.25;6.82;;;;;;;;;;4981011;28;20402;-87
2021/05/22 01:27:23;;;;;;;11.50;6.18;;;;;;;;;;4981056;28;20038;-86
2021/05/22 01:29:49;;;;;;;7.05;5.57;;;;;;;;;;4979983;28;20023;-86
2021/05/22 01:32:16;;;;;;;8.23;6.30;;;;;;;;;;4981112;28;20031;-86
2021/05/22 01:34:42;;;;;;;8.27;6.03;;;;;;;;;;4980998;28;20027;-86
2021/05/22 01:37:08;;;;;;;6.80;6.10;;;;;;;;;;4980665;28;20425;-86
2021/05/22 01:39:34;;;;;;;9.13;7.10;;;;;;;;;;4981101;28;20035;-85
2021/05/22 01:42:01;;;;;;;10.60;6.57;;;;;;;;;;4980873;28;20034;-85
2021/05/22 01:44:28;;;;;;;7.95;6.60;;;;;;;;;;4980590;28;20027;-85
2021/05/22 01:46:54;;;;;;;7.80;7.00;;;;;;;;;;4979693;28;20018;-86
2021/05/22 01:49:21;;;;;;;8.73;6.75;;;;;;;;;;4980482;28;20027;-85
2021/05/22 01:51:47;;;;;;;12.07;6.97;;;;;;;;;;4980119;28;20030;-86
2021/05/22 01:54:13;;;;;;;9.30;6.53;;;;;;;;;;4980781;28;20045;-86
2021/05/22 01:56:40;;;;;;;9.32;6.70;;;;;;;;;;4980335;28;20517;-86
2021/05/22 01:59:06;;;;;;;12.00;7.03;;;;;;;;;;4979268;28;20043;-85
2021/05/22 02:01:32;;;;;;;11.48;7.30;;;;;;;;;;4963339;28;20121;-85
2021/05/22 02:04:03;;;;;;;11.05;7.13;;;;;;;;;;4978731;28;20038;-86
2021/05/22 02:06:31;;;;;;;9.45;6.38;;;;;;;;;;4980151;28;20026;-87
2021/05/22 02:08:58;;;;;;;12.85;6.80;;;;;;;;;;4980366;28;20019;-87
2021/05/22 02:11:27;;;;;;;9.15;6.47;;;;;;;;;;4980296;28;20026;-86
2021/05/22 02:13:54;;;;;;;9.93;7.15;;;;;;;;;;4980336;28;20090;-86
2021/05/22 02:16:23;;;;;;;7.53;6.78;;;;;;;;;;4980018;28;20034;-86
2021/05/22 02:18:50;;;;;;;7.82;6.65;;;;;;;;;;4980195;28;20066;-87
2021/05/22 02:21:16;;;;;;;10.32;7.07;;;;;;;;;;4962945;28;20055;-86
2021/05/22 02:23:45;;;;;;;10.75;7.82;;;;;;;;;;4980065;28;20023;-86
2021/05/22 02:26:12;;;;;;;15.90;8.18;;;;;;;;;;4962331;28;20041;-86
2021/05/22 02:28:42;;;;;;;14.32;7.45;;;;;;;;;;4979903;28;20019;-85
2021/05/22 02:31:09;;;;;;;9.23;8.05;;;;;;;;;;4961959;28;20061;-86
2021/05/22 02:33:36;;;;;;;11.38;7.95;;;;;;;;;;4979502;28;20042;-86
2021/05/22 02:36:03;;;;;;;10.23;8.00;;;;;;;;;;4979564;28;20118;-86
2021/05/22 02:38:36;;;;;;;9.65;7.30;;;;;;;;;;4979436;28;20427;-85
2021/05/22 02:41:05;;;;;;;9.15;7.63;;;;;;;;;;4979529;28;20409;-85
2021/05/22 02:43:32;;;;;;;9.55;6.97;;;;;;;;;;4979383;28;20073;-85
2021/05/22 02:45:59;;;;;;;8.02;7.22;;;;;;;;;;4979808;28;20521;-85
2021/05/22 02:48:26;;;;;;;10.70;7.55;;;;;;;;;;4979474;28;20204;-85
2021/05/22 02:50:52;;;;;;;9.20;7.40;;;;;;;;;;4979408;28;20081;-85
2021/05/22 02:53:24;;;;;;;10.55;7.70;;;;;;;;;;4979282;28;20046;-85
2021/05/22 02:55:51;;;;;;;12.33;7.60;;;;;;;;;;4962284;28;20030;-85
2021/05/22 02:58:18;;;;;;;12.25;7.45;;;;;;;;;;4979431;28;20256;-85
2021/05/22 03:00:44;;;;;;;8.68;7.57;;;;;;;;;;4979405;28;20049;-85
2021/05/22 03:03:11;;;;;;;10.40;7.72;;;;;;;;;;4961725;28;20030;-85
2021/05/22 03:05:37;;;;;;;8.52;7.65;;;;;;;;;;4979323;28;20023;-85
2021/05/22 03:08:03;;;;;;;11.27;7.82;;;;;;;;;;4979353;28;20299;-84
2021/05/22 03:10:31;;;;;;;10.07;7.28;;;;;;;;;;4979129;28;20022;-86
2021/05/22 03:12:57;;;;;;;13.25;7.47;;;;;;;;;;4961673;28;20038;-85
2021/05/22 03:15:23;;;;;;;10.65;7.30;;;;;;;;;;4979056;28;20114;-86
2021/05/22 03:17:49;;;;;;;7.88;6.82;;;;;;;;;;4961940;28;20030;-86
2021/05/22 03:20:15;;;;;;;9.30;7.03;;;;;;;;;;4961767;28;20035;-88
2021/05/22 03:22:42;;;;;;;13.18;7.10;;;;;;;;;;4961606;28;20049;-88
2021/05/22 03:25:08;;;;;;;10.25;7.13;;;;;;;;;;4978880;28;20417;-88
2021/05/22 03:27:36;;;;;;;8.98;7.35;;;;;;;;;;4978912;28;20410;-85
2021/05/22 03:30:03;;;;;;;9.73;7.43;;;;;;;;;;4961912;28;20057;-85
2021/05/22 03:32:29;;;;;;;14.52;6.90;;;;;;;;;;4961245;28;20094;-85
2021/05/22 03:34:55;;;;;;;10.10;7.35;;;;;;;;;;4978960;28;20030;-84
2021/05/22 03:37:21;;;;;;;9.73;7.03;;;;;;;;;;4961449;28;20033;-85
2021/05/22 03:39:48;;;;;;;11.25;7.10;;;;;;;;;;4978845;28;20066;-85
2021/05/22 03:42:14;;;;;;;10.65;7.00;;;;;;;;;;4978710;28;20410;-85
2021/05/22 03:44:40;;;;;;;11.13;7.47;;;;;;;;;;4978571;28;20038;-84
2021/05/22 03:47:06;;;;;;;14.60;7.95;;;;;;;;;;4978616;28;20069;-84
2021/05/22 03:49:32;;;;;;;10.00;8.15;;;;;;;;;;4978522;28;20488;-85
2021/05/22 03:51:58;;;;;;;11.38;7.95;;;;;;;;;;4978846;28;20027;-84
2021/05/22 03:54:24;;;;;;;18.02;8.35;;;;;;;;;;4978734;28;20023;-87
2021/05/22 03:56:50;;;;;;;15.15;8.65;;;;;;;;;;4961708;28;20030;-86
2021/05/22 03:59:16;;;;;;;12.45;8.70;;;;;;;;;;4978571;28;20035;-87
2021/05/22 04:01:42;;;;;;;12.32;8.30;;;;;;;;;;4961622;28;20526;-85
2021/05/22 04:04:09;;;;;;;13.88;8.75;;;;;;;;;;4961293;28;20038;-86
2021/05/22 04:06:35;;;;;;;12.43;7.63;;;;;;;;;;4978502;28;20034;-85
2021/05/22 04:09:01;;;;;;;10.85;8.10;;;;;;;;;;4978614;28;20098;-86
2021/05/22 04:11:27;;;;;;;10.65;7.57;;;;;;;;;;4961305;28;20054;-86
2021/05/22 04:13:53;;;;;;;15.75;7.82;;;;;;;;;;4963095;28;20037;-87
2021/05/22 04:16:19;;;;;;;11.27;7.82;;;;;;;;;;4982301;28;20027;-87
2021/05/22 04:18:45;;;;;;;8.30;6.97;;;;;;;;;;4982071;28;20125;-87
2021/05/22 04:21:12;;;;;;;10.35;6.90;;;;;;;;;;4982149;28;20054;-87
2021/05/22 04:23:39;;;;;;;8.88;7.38;;;;;;;;;;4982091;28;20034;-86
2021/05/22 04:26:05;;;;;;;7.70;6.82;;;;;;;;;;4982273;28;20027;-87
2021/05/22 04:28:31;;;;;;;10.90;7.25;;;;;;;;;;4982243;28;20065;-87
2021/05/22 04:30:57;;;;;;;8.95;6.90;;;;;;;;;;4964867;28;20115;-87
2021/05/22 04:33:23;;;;;;;10.65;7.35;;;;;;;;;;4981741;28;20030;-87
2021/05/22 04:35:49;;;;;;;11.38;7.55;;;;;;;;;;4981704;28;20031;-87
2021/05/22 04:38:15;;;;;;;10.57;6.55;;;;;;;;;;4981970;28;20026;-87
2021/05/22 04:40:41;;;;;;;9.38;6.57;;;;;;;;;;4982028;28;20033;-87
2021/05/22 04:43:08;;;;;;;10.68;6.22;;;;;;;;;;4981885;28;20066;-87
2021/05/22 04:45:34;;;;;;;10.77;6.57;;;;;;;;;;4981776;28;20058;-86
2021/05/22 04:48:00;;;;;;;12.48;6.43;;;;;;;;;;4981510;28;20026;-85
2021/05/22 04:50:28;;;;;;;7.57;6.53;;;;;;;;;;4981529;28;20101;-86
2021/05/22 04:52:54;;;;;;;16.45;7.10;;;;;;;;;;4981746;28;20154;-85
2021/05/22 04:55:20;;;;;;;12.75;6.50;;;;;;;;;;4981761;28;20051;-86
2021/05/22 04:57:46;;;;;;;7.95;6.40;;;;;;;;;;4981629;28;20031;-86
2021/05/22 05:00:13;;;;;;;8.43;6.45;;;;;;;;;;4981530;28;20101;-85
2021/05/22 05:02:39;;;;;;;11.55;6.53;;;;;;;;;;4981237;28;20409;-85
2021/05/22 05:05:05;;;;;;;10.02;6.28;;;;;;;;;;4963862;28;20317;-85
2021/05/22 05:07:31;;;;;;;13.52;7.10;;;;;;;;;;4964349;28;20019;-86
2021/05/22 05:09:57;;;;;;;9.45;6.75;;;;;;;;;;4981300;28;20019;-85
2021/05/22 05:12:24;;;;;;;10.18;6.70;;;;;;;;;;4981215;28;20027;-85
2021/05/22 05:14:50;;;;;;;11.32;7.18;;;;;;;;;;4981329;28;20050;-84
2021/05/22 05:17:16;;;;;;;11.15;7.50;;;;;;;;;;4981081;28;20030;-85
2021/05/22 05:19:42;;;;;;;10.57;7.75;;;;;;;;;;4980628;28;20027;-85
2021/05/22 05:22:08;;;;;;;9.80;8.80;;;;;;;;;;4980456;28;20054;-85
2021/05/22 05:24:34;;;;;;;12.73;9.65;;;;;;;;;;4980147;28;20038;-85
2021/05/22 05:27:00;;;;;;;10.75;8.38;;;;;;;;;;4963232;28;20038;-85
2021/05/22 05:29:26;;;;;;;9.85;7.20;;;;;;;;;;4981257;28;20023;-85
2021/05/22 05:31:52;;;;;;;12.60;7.13;;;;;;;;;;4963834;28;20023;-85
2021/05/22 05:34:18;;;;;;;12.80;7.10;;;;;;;;;;4963585;28;20031;-85
2021/05/22 05:36:44;;;;;;;6.47;5.57;;;;;;;;;;4980690;28;20034;-85
2021/05/22 05:39:12;;;;;;;12.73;6.78;;;;;;;;;;4980716;28;20122;-85
2021/05/22 05:41:38;;;;;;;11.70;8.88;;;;;;;;;;4980846;28;20091;-84
2021/05/22 05:44:04;;;;;;;10.57;6.45;;;;;;;;;;4980427;28;20477;-85
2021/05/22 05:46:30;;;;;;;11.73;6.43;;;;;;;;;;4980610;28;20035;-86
2021/05/22 05:48:56;;;;;;;12.23;6.15;;;;;;;;;;4980451;28;20027;-86
2021/05/22 05:51:22;;;;;;;11.50;6.43;;;;;;;;;;4980759;28;20031;-85
2021/05/22 05:53:48;;;;;;;12.52;6.18;;;;;;;;;;4980751;28;20027;-85
2021/05/22 05:56:15;;;;;;;8.57;6.82;;;;;;;;;;4980466;28;20061;-85
2021/05/22 05:58:41;;;;;;;16.58;8.27;;;;;;;;;;4980536;28;20042;-85
2021/05/22 06:01:08;;;;;;;9.38;6.60;;;;;;;;;;4962933;28;20078;-85
2021/05/22 06:03:34;;;;;;;8.77;6.93;;;;;;;;;;4979999;28;20429;-78
2021/05/22 06:06:00;;;;;;;12.68;6.53;;;;;;;;;;4979818;28;20460;-78
2021/05/22 06:08:27;;;;;;;9.90;6.50;;;;;;;;;;4979746;28;20031;-78
2021/05/22 06:10:54;;;;;;;12.85;5.63;;;;;;;;;;4979899;28;20019;-78
2021/05/22 06:13:23;;;;;;;10.27;4.88;;;;;;;;;;4962510;28;20023;-78
2021/05/22 06:15:57;;;;;;;12.70;5.90;;;;;;;;;;4962675;28;20030;-78
2021/05/22 06:18:23;;;;;;;7.38;5.50;;;;;;;;;;4979415;28;20034;-78
2021/05/22 06:20:49;;;;;;;14.60;5.18;;;;;;;;;;4979451;28;20620;-78
2021/05/22 06:23:15;;;;;;;9.90;5.35;;;;;;;;;;4961895;28;20035;-78
2021/05/22 06:25:41;;;;;;;8.15;5.13;;;;;;;;;;4979437;28;20019;-78
2021/05/22 06:28:07;;;;;;;7.22;5.47;;;;;;;;;;4979415;28;20424;-78
2021/05/22 06:30:33;;;;;;;8.35;5.10;;;;;;;;;;4979420;28;20046;-78
2021/05/22 06:32:59;;;;;;;10.50;5.80;;;;;;;;;;4979265;28;20082;-78
2021/05/22 06:35:25;;;;;;;12.15;5.13;;;;;;;;;;4979281;28;20027;-78
2021/05/22 06:37:51;;;;;;;8.38;5.60;;;;;;;;;;4979056;28;20029;-78
2021/05/22 06:40:17;;;;;;;13.60;5.97;;;;;;;;;;4979179;28;20030;-78
2021/05/22 06:42:43;;;;;;;10.77;6.00;;;;;;;;;;4979415;28;20039;-78
2021/05/22 06:45:14;;;;;;;9.27;5.88;;;;;;;;;;4979223;28;20046;-78
2021/05/22 06:47:40;;;;;;;12.32;6.07;;;;;;;;;;4979237;28;20033;-78
2021/05/22 06:50:06;;;;;;;9.77;4.78;;;;;;;;;;4978758;28;20026;-78
2021/05/22 06:52:32;;;;;;;9.48;5.10;;;;;;;;;;4979003;28;20019;-78
2021/05/22 06:54:58;;;;;;;6.18;4.60;;;;;;;;;;4961749;28;20054;-78
2021/05/22 06:57:24;;;;;;;12.80;4.45;;;;;;;;;;4961514;28;20035;-78
2021/05/22 06:59:52;;;;;;;9.23;5.45;;;;;;;;;;4978895;28;20027;-78
2021/05/22 07:02:18;;;;;;;8.90;5.28;;;;;;;;;;4978736;28;20051;-79
2021/05/22 07:04:44;;;;;;;15.80;9.95;;;;;;;;;;4961559;28;20114;-78
2021/05/22 07:07:11;;;;;;;14.88;10.68;;;;;;;;;;4979135;28;20286;-78
2021/05/22 07:09:37;;;;;;;14.80;8.57;;;;;;;;;;4978593;28;20031;-78
2021/05/22 07:12:03;;;;;;;13.90;7.78;;;;;;;;;;4960820;28;20037;-78
2021/05/22 07:14:30;;;;;;;23.35;15.50;;;;;;;;;;4978709;28;20034;-78
2021/05/22 07:16:58;;;;;;;12.57;4.88;;;;;;;;;;4960818;28;20445;-78
2021/05/22 07:19:24;;;;;;;11.93;6.65;;;;;;;;;;4961436;28;20429;-78
2021/05/22 07:21:50;;;;;;;12.52;7.00;;;;;;;;;;4978395;28;20050;-78
2021/05/22 07:24:17;;;;;;;18.88;13.43;;;;;;;;;;4960603;28;20065;-79
2021/05/22 07:26:44;;;;;;;15.00;8.52;;;;;;;;;;4978286;28;20051;-78
2021/05/22 07:29:11;;;;;;;11.00;6.65;;;;;;;;;;4978605;28;20023;-78
2021/05/22 07:31:40;;;;;;;17.15;9.82;;;;;;;;;;4978140;28;20019;-82
2021/05/22 07:34:07;;;;;;;14.55;10.15;;;;;;;;;;4978233;28;20053;-78
2021/05/22 07:36:33;;;;;;;11.48;7.28;;;;;;;;;;4978268;28;20425;-78
2021/05/22 07:38:59;;;;;;;12.55;7.13;;;;;;;;;;4951122;28;20400;-78
2021/05/22 07:41:25;;;;;;;21.80;13.73;;;;;;;;;;4978367;28;20030;-78
2021/05/22 07:43:52;;;;;;;16.08;10.88;;;;;;;;;;4978222;28;20055;-78
2021/05/22 07:46:18;;;;;;;6.65;4.15;;;;;;;;;;4961006;28;20023;-79
2021/05/22 07:48:44;;;;;;;10.25;4.15;;;;;;;;;;4968430;28;20041;-78
2021/05/22 07:51:10;;;;;;;9.60;4.50;;;;;;;;;;4960990;28;20039;-80
2021/05/22 07:53:36;;;;;;;8.38;4.20;;;;;;;;;;4977922;28;20341;-79
2021/05/22 07:56:02;;;;;;;7.43;4.03;;;;;;;;;;4961075;28;20049;-78
2021/05/22 07:58:28;;;;;;;8.68;5.22;;;;;;;;;;4977827;28;20054;-80
2021/05/22 08:00:54;;;;;;;8.13;4.60;;;;;;;;;;4978045;28;20413;-80
2021/05/22 08:03:20;;;;;;;8.18;4.15;;;;;;;;;;4977844;28;20404;-79
2021/05/22 08:05:47;;;;;;;13.05;6.47;;;;;;;;;;4977946;28;20058;-80
2021/05/22 08:08:13;;;;;;;5.10;3.20;;;;;;;;;;4977831;28;20319;-80
2021/05/22 08:10:39;;;;;;;13.15;4.30;;;;;;;;;;4960986;28;20042;-80
2021/05/22 08:13:06;;;;;;;7.50;5.00;;;;;;;;;;4977863;28;20054;-80
2021/05/22 08:15:32;;;;;;;11.05;6.10;;;;;;;;;;4978046;28;20027;-79
2021/05/22 08:17:58;;;;;;;11.10;4.25;;;;;;;;;;4977834;28;20037;-80
2021/05/22 08:20:24;;;;;;;8.35;4.90;;;;;;;;;;4977716;28;20031;-80
2021/05/22 08:22:51;;;;;;;13.30;6.97;;;;;;;;;;4960506;28;20456;-80
2021/05/22 08:25:17;;;;;;;19.50;8.95;;;;;;;;;;4961033;28;20468;-79
2021/05/22 08:27:43;;;;;;;73.53;62.50;;;;;;;;;;4977693;28;20361;-79
2021/05/22 08:30:10;;;;;;;54.42;35.58;;;;;;;;;;4977867;28;20102;-78
2021/05/22 08:32:37;;;;;;;87.53;59.30;;;;;;;;;;4977780;28;20073;-79
2021/05/22 08:35:04;;;;;;;53.97;34.63;;;;;;;;;;4977764;28;20023;-79
2021/05/22 08:37:30;;;;;;;72.55;47.63;;;;;;;;;;4977689;28;20409;-79
2021/05/22 08:39:56;;;;;;;21.77;15.13;;;;;;;;;;4977808;28;20089;-79
2021/05/22 08:42:24;;;;;;;37.72;23.52;;;;;;;;;;4977982;28;20030;-79
2021/05/22 08:44:50;;;;;;;29.55;20.48;;;;;;;;;;4977765;28;20027;-79
2021/05/22 08:47:17;;;;;;;13.48;8.02;;;;;;;;;;4960488;28;20063;-79
2021/05/22 08:49:43;;;;;;;38.03;26.48;;;;;;;;;;4960815;28;20019;-78
2021/05/22 08:52:14;;;;;;;17.45;9.70;;;;;;;;;;4977463;28;20310;-78
2021/05/22 08:54:40;;;;;;;18.52;6.60;;;;;;;;;;4960717;28;20046;-78
2021/05/22 08:57:07;;;;;;;12.30;7.18;;;;;;;;;;4977632;28;20035;-78
2021/05/22 08:59:39;;;;;;;34.05;19.38;;;;;;;;;;4961492;28;20027;-79
2021/05/22 09:02:05;;;;;;;23.75;9.10;;;;;;;;;;4980953;28;20062;-78
2021/05/22 09:04:31;;;;;;;16.58;7.38;;;;;;;;;;4980305;28;20337;-78
2021/05/22 09:07:05;;;;;;;12.55;6.20;;;;;;;;;;4980833;28;20469;-78
2021/05/22 09:09:38;;;;;;;20.27;7.07;;;;;;;;;;4980755;28;20303;-81
2021/05/22 09:12:05;;;;;;;11.25;5.65;;;;;;;;;;4980915;28;20027;-79
2021/05/22 09:14:43;;;;;;;10.27;4.97;;;;;;;;;;4963806;28;20065;-78
2021/05/22 09:17:10;;;;;;;6.47;2.90;;;;;;;;;;4980466;28;20054;-79
2021/05/22 09:19:36;;;;;;;7.97;3.10;;;;;;;;;;4963467;28;20026;-79
2021/05/22 09:22:31;;;;;;;6.78;2.10;;;;;;;;;;4980269;28;20051;-79
2021/05/22 09:25:02;;;;;;;14.10;4.18;;;;;;;;;;4921154;29;20045;-79
2021/05/22 09:27:38;;;;;;;11.32;4.55;;;;;;;;;;4921282;29;20427;-79
2021/05/22 09:30:15;;;;;;;7.05;2.70;;;;;;;;;;4905454;29;20032;-79
2021/05/22 09:32:42;;;;;;;6.57;2.50;;;;;;;;;;4905312;29;20032;-79
2021/05/22 09:35:09;;;;;;;9.50;3.60;;;;;;;;;;4905300;29;20138;-79
2021/05/22 09:37:58;;;;;;;9.13;2.72;;;;;;;;;;4921108;29;20495;-79
2021/05/22 09:40:26;;;;;;;6.43;2.65;;;;;;;;;;4849385;29;20048;-79
2021/05/22 09:42:52;;;;;;;6.45;2.45;;;;;;;;;;4864647;29;20037;-79
2021/05/22 09:45:22;;;;;;;5.13;2.63;;;;;;;;;;4864653;29;20038;-79
2021/05/22 09:47:48;;;;;;;4.90;2.50;;;;;;;;;;4848911;29;20033;-79
2021/05/22 09:50:26;;;;;;;8.52;2.10;;;;;;;;;;4865088;29;20046;-79
2021/05/22 09:52:53;;;;;;;5.72;2.55;;;;;;;;;;4872601;29;20030;-79
2021/05/22 09:55:20;;;;;;;7.95;2.40;;;;;;;;;;4864488;29;20068;-79
2021/05/22 09:57:46;;;;;;;5.45;2.28;;;;;;;;;;4864295;29;20045;-79
2021/05/22 10:00:17;;;;;;;6.75;3.17;;;;;;;;;;4866181;29;20045;-79
2021/05/22 10:02:50;;;;;;;4.70;2.30;;;;;;;;;;4901634;29;20451;-79
2021/05/22 10:05:18;;;;;;;4.47;2.20;;;;;;;;;;4901562;29;20339;-79
2021/05/22 10:07:45;;;;;;;10.43;3.35;;;;;;;;;;4902286;29;20044;-85
2021/05/22 10:10:11;;;;;;;5.90;2.40;;;;;;;;;;4902445;29;20041;-85
2021/05/22 10:12:39;;;;;;;4.68;1.90;;;;;;;;;;4885864;29;20516;-89
2021/05/22 10:15:06;;;;;;;2.47;1.60;;;;;;;;;;4902362;29;20411;-88
2021/05/22 10:17:32;;;;;;;8.45;2.60;;;;;;;;;;4946930;28;20049;-89
2021/05/22 10:19:58;;;;;;;18.23;3.67;;;;;;;;;;4963204;28;20165;-89
2021/05/22 10:22:24;;;;;;;8.73;2.72;;;;;;;;;;4979749;28;20098;-89
2021/05/22 10:24:52;;;;;;;2.72;1.30;;;;;;;;;;4980195;28;20066;-90
2021/05/22 10:27:19;;;;;;;4.30;1.30;;;;;;;;;;4963414;28;20035;-90
2021/05/22 10:29:45;;;;;;;3.97;1.15;;;;;;;;;;4962984;28;20027;-90
2021/05/22 10:35:23;;;;;;;4.47;0.90;;;;;;;;;;4980155;28;20370;-90
2021/05/22 10:37:50;;;;;;;3.03;1.17;;;;;;;;;;4980274;28;20023;-90
2021/05/22 10:40:18;;;;;;;3.58;0.88;;;;;;;;;;4962793;28;20450;-89
2021/05/22 10:42:45;;;;;;;1.65;0.90;;;;;;;;;;4962625;28;20114;-85
2021/05/22 10:45:26;;;;;;;2.03;0.90;;;;;;;;;;4980194;28;20046;-91
2021/05/22 10:47:54;;;;;;;4.13;1.00;;;;;;;;;;4980029;28;20023;-83
2021/05/22 10:50:43;;;;;;;1.90;1.00;;;;;;;;;;4979455;28;20307;-86
2021/05/22 10:53:23;;;;;;;3.08;0.93;;;;;;;;;;4962463;28;20113;-86
2021/05/22 10:56:07;;;;;;;4.07;0.90;;;;;;;;;;4979444;28;20033;-86
2021/05/22 10:58:34;;;;;;;2.75;1.02;;;;;;;;;;4962456;28;20069;-87
2021/05/22 11:01:19;;;;;;;2.60;0.95;;;;;;;;;;4979773;28;20487;-85
2021/05/22 11:06:53;;;;;;;3.22;1.10;;;;;;;;;;4979615;28;20045;-88
2021/05/22 11:09:29;;;;;;;2.40;1.38;;;;;;;;;;4962289;28;20023;-88
2021/05/22 11:11:57;;;;;;;4.55;1.25;;;;;;;;;;4979384;28;20054;-87
2021/05/22 11:14:37;;;;;;;3.80;1.92;;;;;;;;;;4979395;28;20353;-88
2021/05/22 11:17:25;;;;;;;3.45;1.35;;;;;;;;;;4978973;28;20031;-87
2021/05/22 17:20:28;;;;;;;4.22;1.00;;;;;;;;;;5095248;27;20346;-86
2021/05/22 17:22:55;;;;;;;2.33;1.20;;;;;;;;;;5095219;28;20062;-85
2021/05/22 17:25:21;;;;;;;5.55;1.10;;;;;;;;;;5095264;28;20024;-84
2021/05/22 17:27:48;;;;;;;2.50;1.25;;;;;;;;;;5110825;28;20040;-81
2021/05/22 17:30:16;;;;;;;3.33;1.20;;;;;;;;;;5094232;28;20028;-82
2021/05/22 17:32:42;;;;;;;4.25;1.73;;;;;;;;;;5110125;28;20085;-81
2021/05/22 17:35:08;;;;;;;5.78;2.05;;;;;;;;;;5094370;28;20024;-81
2021/05/22 17:37:37;;;;;;;2.40;1.48;;;;;;;;;;5094693;28;20112;-82
2021/05/22 17:40:03;;;;;;;2.33;1.30;;;;;;;;;;5094397;28;20028;-81
2021/05/22 17:42:29;;;;;;;7.72;1.58;;;;;;;;;;5094217;28;20025;-82
2021/05/22 17:44:56;;;;;;;2.38;1.33;;;;;;;;;;5094254;28;20017;-81
2021/05/22 17:47:22;;;;;;;2.75;1.10;;;;;;;;;;5094031;28;20111;-81
2021/05/22 17:49:48;;;;;;;2.88;1.10;;;;;;;;;;5094405;28;20432;-81
2021/05/22 17:52:14;;;;;;;2.28;1.30;;;;;;;;;;5110103;28;20410;-82
2021/05/22 17:54:40;;;;;;;3.90;1.27;;;;;;;;;;5094005;28;20402;-89
2021/05/22 17:57:08;;;;;;;2.40;1.20;;;;;;;;;;5110570;28;20406;-91
2021/05/22 17:59:34;;;;;;;2.65;1.02;;;;;;;;;;5094577;28;20028;-90
2021/05/22 18:02:01;;;;;;;2.90;1.27;;;;;;;;;;5110535;28;20033;-90
2021/05/22 18:04:27;;;;;;;3.45;1.48;;;;;;;;;;5094289;28;20028;-90
2021/05/22 18:06:53;;;;;;;4.28;1.10;;;;;;;;;;5110454;28;20024;-91
2021/05/22 18:09:22;;;;;;;1.40;1.10;;;;;;;;;;5110255;28;20032;-91
2021/05/22 18:11:48;;;;;;;4.88;1.40;;;;;;;;;;5110204;28;20043;-90
2021/05/22 18:14:15;;;;;;;3.08;1.20;;;;;;;;;;5093847;28;20295;-91
2021/05/22 18:16:41;;;;;;;4.10;1.35;;;;;;;;;;5094058;28;20017;-92
2021/05/22 18:19:07;;;;;;;2.28;1.33;;;;;;;;;;5094121;28;20132;-90
2021/05/22 18:21:33;;;;;;;2.88;1.15;;;;;;;;;;5093835;28;20020;-91
2021/05/22 18:23:59;;;;;;;4.70;1.45;;;;;;;;;;5093821;28;20025;-90
2021/05/22 18:26:25;;;;;;;3.58;1.10;;;;;;;;;;5093915;28;20341;-90
2021/05/22 18:28:51;;;;;;;2.63;1.60;;;;;;;;;;5093906;28;20025;-91
2021/05/22 18:31:17;;;;;;;3.90;1.92;;;;;;;;;;5082490;28;20044;-90
2021/05/22 18:33:44;;;;;;;4.72;2.08;;;;;;;;;;5080608;28;20123;-90
2021/05/22 18:36:11;;;;;;;4.07;2.05;;;;;;;;;;5079210;28;20051;-90
2021/05/22 18:38:37;;;;;;;6.85;2.00;;;;;;;;;;5080276;28;20024;-90
2021/05/22 18:41:03;;;;;;;4.82;2.03;;;;;;;;;;5080234;28;20017;-90
2021/05/22 18:43:29;;;;;;;3.35;1.90;;;;;;;;;;5079230;28;20092;-90
2021/05/22 18:45:55;;;;;;;2.88;1.92;;;;;;;;;;5080125;28;20091;-91
2021/05/22 18:48:22;;;;;;;2.13;1.40;;;;;;;;;;5079943;28;20039;-90
2021/05/22 18:50:49;;;;;;;2.60;1.40;;;;;;;;;;5079114;28;20471;-91
2021/05/22 18:53:15;;;;;;;3.65;1.73;;;;;;;;;;5080251;28;20326;-91
2021/05/22 18:55:41;;;;;;;2.42;1.48;;;;;;;;;;5078923;28;20063;-90
2021/05/22 18:58:07;;;;;;;4.22;1.90;;;;;;;;;;5079221;28;20033;-90
2021/05/22 19:00:33;;;;;;;2.72;1.70;;;;;;;;;;5078914;28;20020;-90
2021/05/22 19:02:59;;;;;;;2.92;2.00;;;;;;;;;;5079781;28;20035;-91
2021/05/22 19:05:25;;;;;;;3.28;2.10;;;;;;;;;;5079994;28;20043;-90
2021/05/22 19:07:52;;;;;;;4.03;2.00;;;;;;;;;;5078696;28;20031;-92
2021/05/22 19:10:19;;;;;;;3.25;2.05;;;;;;;;;;5079725;28;20029;-91
2021/05/22 19:12:45;;;;;;;5.97;2.53;;;;;;;;;;5079902;28;20025;-90
2021/05/22 19:15:13;;;;;;;5.55;1.95;;;;;;;;;;5078558;28;20315;-90
2021/05/22 19:17:40;;;;;;;3.63;1.92;;;;;;;;;;5078463;28;20024;-91
2021/05/22 19:20:07;;;;;;;3.38;1.73;;;;;;;;;;5078200;28;20052;-90
2021/05/22 19:22:33;;;;;;;7.95;2.50;;;;;;;;;;5078699;28;20025;-91
2021/05/22 19:24:59;;;;;;;3.47;1.67;;;;;;;;;;5079397;28;20287;-91
2021/05/22 19:27:25;;;;;;;3.20;1.75;;;;;;;;;;5079734;28;20130;-90
2021/05/22 19:29:52;;;;;;;2.03;1.60;;;;;;;;;;5079529;28;20111;-91
2021/05/22 19:32:18;;;;;;;3.28;1.70;;;;;;;;;;5078669;28;20115;-91
2021/05/22 19:34:44;;;;;;;2.00;1.50;;;;;;;;;;5079395;28;20036;-92
2021/05/22 19:37:11;;;;;;;3.63;1.60;;;;;;;;;;5079041;28;20035;-91
2021/05/22 19:39:37;;;;;;;3.25;1.45;;;;;;;;;;5079308;28;20025;-91
2021/05/22 19:42:04;;;;;;;3.88;1.90;;;;;;;;;;5078430;28;20074;-91
2021/05/22 19:44:30;;;;;;;4.25;1.67;;;;;;;;;;5078453;28;20024;-90
2021/05/22 19:46:56;;;;;;;4.97;1.75;;;;;;;;;;5079360;28;20027;-91
2021/05/22 19:55:30;;;;;;;5.55;2.47;;;;;;;;;;5079052;28;20035;-91
2021/05/22 19:57:56;;;;;;;5.57;2.05;;;;;;;;;;5079012;28;20020;-91
2021/05/22 20:00:23;;;;;;;5.50;2.70;;;;;;;;;;5078742;28;20414;-91
2021/05/22 20:08:56;;;;;;;11.18;5.13;;;;;;;;;;5078773;28;20031;-92
2021/05/22 20:11:22;;;;;;;9.70;4.97;;;;;;;;;;5077553;28;20027;-91
2021/05/22 20:13:49;;;;;;;9.45;5.43;;;;;;;;;;5078139;28;20036;-91
2021/05/22 20:16:15;;;;;;;9.30;5.68;;;;;;;;;;5078267;28;20028;-90
2021/05/22 20:18:41;;;;;;;9.38;5.80;;;;;;;;;;5077721;28;20086;-92
2021/05/22 20:21:09;;;;;;;10.48;5.22;;;;;;;;;;5077530;28;20074;-92
2021/05/22 20:23:35;;;;;;;9.75;6.30;;;;;;;;;;5078334;28;20028;-91
2021/05/22 20:26:01;;;;;;;12.35;5.47;;;;;;;;;;5078159;28;20074;-91
2021/05/22 20:28:27;;;;;;;7.93;5.32;;;;;;;;;;5077648;28;20033;-92
2021/05/22 20:30:57;;;;;;;9.50;5.30;;;;;;;;;;5078194;28;20060;-91
2021/05/22 20:33:23;;;;;;;9.27;5.55;;;;;;;;;;5077980;28;20024;-91
2021/05/22 20:35:49;;;;;;;7.13;4.22;;;;;;;;;;5078091;28;20032;-92
2021/05/22 20:38:15;;;;;;;8.80;4.30;;;;;;;;;;5077356;28;20427;-91
2021/05/22 20:40:41;;;;;;;10.20;4.93;;;;;;;;;;5078165;28;20292;-91
2021/05/22 20:43:07;;;;;;;11.00;6.07;;;;;;;;;;5078181;28;20546;-91
2021/05/22 20:45:33;;;;;;;12.68;6.93;;;;;;;;;;5077057;28;20127;-92
2021/05/22 20:47:59;;;;;;;10.25;6.57;;;;;;;;;;5077510;28;20357;-91
2021/05/22 20:50:30;;;;;;;10.82;6.38;;;;;;;;;;5077183;28;20048;-91
2021/05/22 20:52:56;;;;;;;8.70;4.72;;;;;;;;;;5076953;28;20079;-91
2021/05/22 20:55:23;;;;;;;10.02;3.88;;;;;;;;;;5077675;28;20424;-91
2021/05/22 20:57:49;;;;;;;8.07;4.28;;;;;;;;;;5077742;28;20029;-91